createdAt,value
2023-04-12T00:02:01.629Z,3.30
2023-04-12T00:04:29.028Z,2.95
2023-04-12T00:06:56.310Z,3.33
2023-04-12T00:09:23.390Z,3.95
2023-04-12T00:11:50.228Z,3.78
2023-04-12T00:14:18.414Z,3.38
2023-04-12T00:16:45.274Z,3.92
2023-04-12T00:19:12.092Z,4.43
2023-04-12T00:21:38.980Z,4.78
2023-04-12T00:24:06.663Z,3.92
2023-04-12T00:26:33.450Z,4.30
2023-04-12T00:29:00.446Z,4.07
2023-04-12T00:31:28.850Z,3.70
2023-04-12T00:33:56.154Z,4.13
2023-04-12T00:36:23.255Z,4.03
2023-04-12T00:38:50.053Z,3.85
2023-04-12T00:41:18.037Z,3.83
2023-04-12T00:43:44.880Z,3.33
2023-04-12T00:46:12.392Z,3.90
2023-04-12T00:48:40.874Z,3.20
2023-04-12T00:51:08.149Z,3.42
2023-04-12T00:53:35.809Z,3.20
2023-04-12T00:56:04.312Z,3.42
2023-04-12T00:58:31.946Z,3.20
2023-04-12T01:00:59.062Z,3.80
2023-04-12T01:03:27.819Z,3.40
2023-04-12T01:06:09.806Z,3.47
2023-04-12T01:08:50.599Z,3.55
2023-04-12T01:11:26.739Z,3.92
2023-04-12T01:13:59.405Z,3.80
2023-04-12T01:16:32.328Z,3.53
2023-04-12T01:19:03.933Z,3.73
2023-04-12T01:21:45.279Z,3.47
2023-04-12T01:24:23.834Z,2.95
2023-04-12T01:26:52.002Z,3.35
2023-04-12T01:29:22.892Z,2.72
2023-04-12T01:31:54.547Z,3.53
2023-04-12T01:34:23.249Z,2.88
2023-04-12T01:36:52.078Z,2.83
2023-04-12T01:39:18.966Z,2.67
2023-04-12T01:41:48.937Z,2.08
2023-04-12T01:44:16.403Z,3.13
2023-04-12T01:46:46.834Z,2.55
2023-04-12T01:49:15.614Z,2.80
2023-04-12T01:51:50.346Z,2.85
2023-04-12T01:54:21.910Z,2.47
2023-04-12T01:56:57.916Z,2.92
2023-04-12T01:59:28.323Z,2.83
2023-04-12T02:01:57.142Z,2.80
2023-04-12T02:04:27.751Z,3.58
2023-04-12T02:06:54.977Z,3.47
2023-04-12T02:09:22.837Z,3.63
2023-04-12T02:11:49.912Z,3.25
2023-04-12T02:14:16.819Z,2.80
2023-04-12T02:16:44.706Z,2.80
2023-04-12T02:19:13.168Z,2.33
2023-04-12T02:21:41.554Z,3.22
2023-04-12T02:24:08.495Z,3.20
2023-04-12T02:26:36.439Z,2.80
2023-04-12T02:29:03.609Z,3.05
2023-04-12T02:31:33.096Z,3.40
2023-04-12T02:33:59.853Z,3.28
2023-04-12T02:36:28.103Z,3.08
2023-04-12T02:38:56.132Z,3.45
2023-04-12T02:41:24.004Z,3.30
2023-04-12T02:43:51.108Z,3.83
2023-04-12T02:46:21.778Z,3.90
2023-04-12T02:48:49.222Z,7.63
2023-04-12T02:51:16.035Z,7.90
2023-04-12T02:53:44.440Z,4.95
2023-04-12T02:56:12.063Z,11.32
2023-04-12T02:58:39.268Z,9.25
2023-04-12T03:01:07.645Z,11.65
2023-04-12T03:03:35.601Z,15.38
2023-04-12T03:06:02.761Z,12.85
2023-04-12T03:08:29.652Z,20.30
2023-04-12T03:10:58.023Z,13.00
2023-04-12T03:13:24.988Z,12.15
2023-04-12T03:15:57.142Z,6.68
2023-04-12T03:18:24.137Z,13.75
2023-04-12T03:20:52.514Z,9.70
2023-04-12T03:23:20.509Z,9.60
2023-04-12T03:25:47.620Z,6.95
2023-04-12T03:28:15.844Z,8.38
2023-04-12T03:30:42.738Z,8.00
2023-04-12T03:33:09.744Z,8.23
2023-04-12T03:35:36.646Z,7.40
2023-04-12T03:38:03.533Z,7.70
2023-04-12T03:40:30.421Z,6.93
2023-04-12T03:42:58.823Z,5.97
2023-04-12T03:45:28.193Z,5.65
2023-04-12T03:47:55.060Z,5.05
2023-04-12T03:50:22.775Z,6.28
2023-04-12T03:52:50.184Z,4.90
2023-04-12T03:55:18.438Z,4.25
2023-04-12T03:57:45.447Z,4.13
2023-04-12T04:00:13.632Z,3.55
2023-04-12T04:02:42.075Z,3.70
2023-04-12T04:05:09.749Z,3.03
2023-04-12T04:07:36.838Z,3.47
2023-04-12T04:10:05.691Z,3.28
2023-04-12T04:12:32.539Z,2.95
2023-04-12T04:14:59.361Z,2.75
2023-04-12T04:17:26.218Z,2.40
2023-04-12T04:19:54.698Z,2.45
2023-04-12T04:22:21.814Z,2.83
2023-04-12T04:24:50.207Z,2.63
2023-04-12T04:27:17.140Z,3.05
2023-04-12T04:29:47.373Z,2.40
2023-04-12T04:32:14.181Z,3.00
2023-04-12T04:34:41.617Z,2.97
2023-04-12T04:37:10.080Z,3.10
2023-04-12T04:39:37.445Z,2.10
2023-04-12T04:42:06.643Z,2.88
2023-04-12T04:44:36.151Z,2.33
2023-04-12T04:47:03.648Z,3.13
2023-04-12T04:49:30.819Z,2.65
2023-04-12T04:51:57.666Z,2.00
2023-04-12T04:54:25.901Z,1.75
2023-04-12T04:56:52.776Z,2.42
2023-04-12T04:59:20.196Z,3.15
2023-04-12T05:01:47.214Z,2.22
2023-04-12T05:04:14.243Z,2.70
2023-04-12T05:06:41.176Z,2.55
2023-04-12T05:09:08.012Z,2.95
2023-04-12T05:11:37.358Z,2.45
2023-04-12T05:14:04.210Z,2.60
2023-04-12T05:16:31.088Z,3.67
2023-04-12T05:18:58.129Z,13.68
2023-04-12T05:21:25.096Z,15.48
2023-04-12T05:23:51.945Z,13.27
2023-04-12T05:26:18.852Z,15.93
2023-04-12T05:28:47.213Z,6.97
2023-04-12T05:31:14.158Z,9.40
2023-04-12T05:33:41.371Z,4.07
2023-04-12T05:36:08.750Z,3.83
2023-04-12T05:38:35.682Z,2.88
2023-04-12T05:41:05.790Z,3.75
2023-04-12T05:43:33.375Z,3.60
2023-04-12T05:46:01.839Z,3.63
2023-04-12T05:48:28.748Z,3.53
2023-04-12T05:50:55.915Z,4.32
2023-04-12T05:53:23.154Z,5.03
2023-04-12T05:55:50.039Z,6.63
2023-04-12T05:58:16.864Z,5.07
2023-04-12T06:00:45.370Z,6.93
2023-04-12T06:03:13.705Z,4.22
2023-04-12T06:05:41.034Z,3.88
2023-04-12T06:08:08.597Z,3.33
2023-04-12T06:10:35.571Z,3.08
2023-04-12T06:13:02.424Z,3.17
2023-04-12T06:15:32.008Z,3.13
2023-04-12T06:18:00.426Z,3.22
2023-04-12T06:20:28.773Z,3.35
2023-04-12T06:22:55.605Z,3.38
2023-04-12T06:25:23.155Z,2.50
2023-04-12T06:27:50.558Z,3.22
2023-04-12T06:30:19.130Z,2.83
2023-04-12T06:32:46.177Z,2.83
2023-04-12T06:35:13.070Z,3.42
2023-04-12T06:37:41.670Z,3.72
2023-04-12T06:40:09.441Z,3.08
2023-04-12T06:42:36.951Z,4.22
2023-04-12T06:45:04.528Z,2.95
2023-04-12T06:47:32.485Z,2.60
2023-04-12T06:49:59.482Z,3.25
2023-04-12T06:52:26.855Z,2.67
2023-04-12T06:54:56.399Z,2.60
2023-04-12T06:57:23.862Z,3.88
2023-04-12T06:59:51.154Z,7.25
2023-04-12T07:02:18.559Z,3.63
2023-04-12T07:04:45.731Z,3.03
2023-04-12T07:07:12.602Z,2.58
2023-04-12T07:09:39.479Z,2.60
2023-04-12T07:12:08.011Z,2.30
2023-04-12T07:14:34.863Z,2.90
2023-04-12T07:17:02.063Z,2.58
2023-04-12T07:19:31.202Z,2.70
2023-04-12T07:21:58.396Z,2.33
2023-04-12T07:24:25.260Z,3.03
2023-04-12T07:26:53.857Z,2.10
2023-04-12T07:29:22.272Z,2.22
2023-04-12T07:31:49.161Z,2.67
2023-04-12T07:34:16.239Z,2.88
2023-04-12T07:36:44.463Z,2.30
2023-04-12T07:39:12.509Z,2.40
2023-04-12T07:41:39.581Z,2.67
2023-04-12T07:44:06.648Z,3.95
2023-04-12T07:46:34.961Z,3.58
2023-04-12T07:49:01.854Z,2.60
2023-04-12T07:51:28.657Z,2.95
2023-04-12T07:53:55.808Z,2.63
2023-04-12T07:56:22.981Z,2.65
2023-04-12T07:58:49.942Z,2.92
2023-04-12T08:01:16.996Z,3.22
2023-04-12T08:03:45.496Z,2.60
2023-04-12T08:06:12.804Z,3.42
2023-04-12T08:08:39.656Z,3.28
2023-04-12T08:11:06.689Z,3.53
2023-04-12T08:13:34.311Z,3.78
2023-04-12T08:16:01.756Z,2.97
2023-04-12T08:18:29.382Z,2.92
2023-04-12T08:20:58.409Z,2.85
2023-04-12T08:23:25.692Z,2.50
2023-04-12T08:25:59.377Z,2.85
2023-04-12T08:28:28.771Z,2.78
2023-04-12T08:30:55.691Z,2.75
2023-04-12T08:33:22.663Z,4.20
2023-04-12T08:35:49.690Z,3.70
2023-04-12T08:38:18.058Z,3.38
2023-04-12T08:40:46.567Z,3.20
2023-04-12T08:43:15.377Z,3.45
2023-04-12T08:45:42.586Z,3.47
2023-04-12T08:48:10.031Z,2.63
2023-04-12T08:50:37.100Z,3.42
2023-04-12T08:53:04.052Z,4.43
2023-04-12T08:55:32.369Z,5.25
2023-04-12T08:57:59.489Z,3.03
2023-04-12T09:00:27.419Z,3.20
2023-04-12T09:02:54.628Z,2.95
2023-04-12T09:05:28.424Z,2.78
2023-04-12T09:07:55.272Z,2.88
2023-04-12T09:10:34.376Z,3.03
2023-04-12T09:13:01.591Z,3.42
2023-04-12T09:15:28.494Z,2.83
2023-04-12T09:18:08.311Z,3.63
2023-04-12T09:20:36.216Z,3.13
2023-04-12T09:23:18.375Z,2.38
2023-04-12T09:25:48.562Z,3.67
2023-04-12T09:28:24.234Z,2.33
2023-04-12T09:30:52.307Z,3.10
2023-04-12T09:33:19.979Z,3.88
2023-04-12T09:35:47.767Z,3.22
2023-04-12T09:38:15.372Z,3.28
2023-04-12T09:40:42.477Z,3.08
2023-04-12T09:43:10.984Z,3.03
2023-04-12T09:45:41.244Z,3.45
2023-04-12T09:48:08.260Z,2.85
2023-04-12T09:50:35.475Z,3.60
2023-04-12T09:53:04.124Z,3.25
2023-04-12T09:55:32.418Z,2.92
2023-04-12T09:58:04.055Z,2.83
2023-04-12T10:00:34.417Z,2.05
2023-04-12T10:03:01.980Z,2.50
2023-04-12T10:05:29.284Z,2.50
2023-04-12T10:07:58.167Z,2.40
2023-04-12T10:10:25.120Z,2.80
2023-04-12T10:12:52.052Z,3.78
2023-04-12T10:15:21.684Z,7.47
2023-04-12T10:17:53.076Z,3.00
2023-04-12T10:20:21.870Z,1.17
2023-04-12T10:22:50.962Z,2.65
2023-04-12T10:25:19.746Z,1.08
2023-04-12T10:27:47.867Z,1.40
2023-04-12T10:30:22.967Z,1.10
2023-04-12T10:33:12.936Z,2.47
2023-04-12T10:35:51.798Z,1.77
2023-04-12T10:38:19.579Z,2.35
2023-04-12T10:41:08.148Z,3.22
2023-04-12T10:43:35.029Z,1.30
2023-04-12T10:46:06.659Z,1.20
2023-04-12T10:48:36.499Z,1.48
2023-04-12T10:51:18.464Z,1.30
2023-04-12T10:53:46.918Z,2.45
2023-04-12T10:56:37.177Z,4.00
2023-04-12T10:59:05.160Z,1.92
2023-04-12T11:01:33.743Z,1.23
2023-04-12T11:04:15.381Z,2.58
2023-04-12T11:06:59.164Z,1.15
2023-04-12T11:09:28.280Z,1.10
2023-04-12T11:12:11.487Z,1.13
2023-04-12T11:14:43.144Z,1.67
2023-04-12T11:17:24.245Z,1.40
2023-04-12T11:19:58.820Z,1.52
2023-04-12T11:22:28.975Z,1.90
2023-04-12T11:24:57.768Z,0.98
2023-04-12T11:27:26.440Z,1.40
2023-04-12T11:29:55.701Z,1.40
2023-04-12T11:32:23.648Z,1.65
2023-04-12T11:34:51.202Z,1.00
2023-04-12T11:37:23.254Z,1.20
2023-04-12T11:39:52.238Z,1.20
2023-04-12T11:42:21.227Z,2.15
2023-04-12T11:44:57.285Z,1.38
2023-04-12T11:47:27.931Z,1.92
2023-04-12T11:49:56.138Z,1.50
2023-04-12T11:52:32.774Z,1.90
2023-04-12T11:55:01.079Z,1.73
2023-04-12T11:57:29.188Z,1.60
2023-04-12T11:59:59.315Z,1.33
2023-04-12T12:02:30.250Z,1.45
2023-04-12T12:07:28.595Z,1.15
2023-04-12T12:09:56.491Z,0.85
2023-04-12T12:12:24.037Z,0.50
2023-04-12T12:14:50.956Z,0.80
2023-04-12T12:17:17.852Z,0.77
2023-04-12T12:19:46.474Z,0.80
2023-04-12T12:22:15.207Z,0.90
2023-04-12T12:24:49.550Z,1.30
2023-04-12T12:27:22.817Z,1.42
2023-04-12T12:29:51.587Z,1.65
2023-04-12T12:32:18.497Z,0.80
2023-04-12T12:34:51.234Z,1.30
2023-04-12T12:37:21.616Z,1.10
2023-04-12T12:40:10.489Z,1.50
2023-04-12T12:42:44.562Z,1.73
2023-04-12T12:45:12.150Z,1.67
2023-04-12T12:47:48.243Z,1.42
2023-04-12T12:50:17.645Z,1.33
2023-04-12T12:52:46.050Z,1.33
2023-04-12T12:55:14.907Z,1.40
2023-04-12T12:57:42.869Z,1.73
2023-04-12T13:00:11.007Z,1.15
2023-04-12T13:02:38.414Z,1.30
2023-04-12T13:05:08.807Z,1.20
2023-04-12T13:07:38.389Z,1.55
2023-04-12T13:10:06.357Z,1.45
2023-04-12T13:12:34.779Z,0.80
2023-04-12T13:15:17.512Z,0.75
2023-04-12T13:17:48.736Z,0.82
2023-04-12T13:20:15.674Z,1.20
2023-04-12T13:22:42.454Z,1.27
2023-04-12T13:25:09.972Z,0.50
2023-04-12T13:27:38.468Z,1.63
2023-04-12T13:30:06.802Z,1.63
2023-04-12T13:32:33.748Z,1.40
2023-04-12T13:35:00.672Z,1.13
2023-04-12T13:37:27.503Z,1.13
2023-04-12T13:39:54.379Z,1.25
2023-04-12T13:42:22.826Z,1.48
2023-04-12T13:44:51.272Z,2.03
2023-04-12T13:47:18.229Z,2.28
2023-04-12T13:49:45.318Z,2.70
2023-04-12T13:52:12.556Z,2.33
2023-04-12T13:54:41.032Z,1.90
2023-04-12T13:57:08.156Z,1.55
2023-04-12T13:59:35.363Z,1.63
2023-04-12T14:02:03.851Z,2.38
2023-04-12T14:04:31.609Z,1.90
2023-04-12T14:06:59.076Z,2.22
2023-04-12T14:09:27.892Z,2.50
2023-04-12T14:11:56.230Z,1.88
2023-04-12T14:14:24.167Z,1.77
2023-04-12T14:16:53.502Z,2.30
2023-04-12T14:19:22.017Z,2.58
2023-04-12T14:21:49.234Z,3.40
2023-04-12T14:24:16.834Z,3.08
2023-04-12T14:26:43.792Z,1.48
2023-04-12T14:29:11.068Z,2.53
2023-04-12T14:31:38.144Z,1.95
2023-04-12T14:34:05.615Z,2.75
2023-04-12T14:36:34.232Z,1.88
2023-04-12T14:39:03.835Z,1.60
2023-04-12T14:41:30.812Z,1.63
2023-04-12T14:43:59.685Z,1.17
2023-04-12T14:46:28.315Z,1.48
2023-04-12T14:48:57.379Z,2.05
2023-04-12T14:51:24.432Z,1.23
2023-04-12T14:53:52.749Z,2.00
2023-04-12T14:56:23.892Z,2.55
2023-04-12T14:58:54.049Z,3.15
2023-04-12T15:01:21.316Z,1.70
2023-04-12T15:03:48.352Z,1.90
2023-04-12T15:06:15.554Z,1.58
2023-04-12T15:08:42.793Z,7.65
2023-04-12T15:11:12.618Z,1.60
2023-04-12T15:13:41.247Z,1.73
2023-04-12T15:16:09.165Z,1.65
2023-04-12T15:18:41.909Z,2.05
2023-04-12T15:21:10.432Z,1.77
2023-04-12T15:23:39.217Z,2.50
2023-04-12T15:26:09.476Z,3.15
2023-04-12T15:28:38.302Z,2.33
2023-04-12T15:31:06.079Z,1.65
2023-04-12T15:33:34.922Z,1.67
2023-04-12T15:36:02.367Z,2.30
2023-04-12T15:38:29.950Z,1.73
2023-04-12T15:40:59.160Z,1.65
2023-04-12T15:43:27.030Z,2.10
2023-04-12T15:45:56.329Z,1.92
2023-04-12T15:48:24.931Z,2.05
2023-04-12T15:50:53.643Z,2.08
2023-04-12T15:53:22.103Z,1.73
2023-04-12T15:55:49.193Z,1.58
2023-04-12T15:58:16.119Z,1.58
2023-04-12T16:00:43.408Z,1.67
2023-04-12T16:03:12.930Z,8.15
2023-04-12T16:05:41.424Z,1.00
2023-04-12T16:08:10.938Z,1.23
2023-04-12T16:10:39.362Z,1.88
2023-04-12T16:13:06.317Z,1.73
2023-04-12T16:15:33.938Z,1.20
2023-04-12T16:18:00.776Z,2.20
2023-04-12T16:20:29.074Z,1.35
2023-04-12T16:22:55.946Z,1.65
2023-04-12T16:25:24.219Z,2.58
2023-04-12T16:27:51.325Z,1.13
2023-04-12T16:30:18.545Z,2.90
2023-04-12T16:32:49.063Z,3.40
2023-04-12T16:35:16.530Z,2.53
2023-04-12T16:37:46.043Z,2.08
2023-04-12T16:40:13.154Z,1.98
2023-04-12T16:42:41.869Z,3.30
2023-04-12T16:45:10.064Z,1.85
2023-04-12T16:47:37.543Z,3.22
2023-04-12T16:50:08.253Z,2.30
2023-04-12T16:52:36.050Z,1.88
2023-04-12T16:55:05.166Z,1.80
2023-04-12T16:57:32.893Z,2.35
2023-04-12T16:59:59.957Z,4.28
2023-04-12T17:02:27.454Z,5.47
2023-04-12T17:04:54.639Z,4.95
2023-04-12T17:07:21.772Z,2.97
2023-04-12T17:09:48.672Z,2.28
2023-04-12T17:12:16.960Z,2.00
2023-04-12T17:14:43.767Z,1.90
2023-04-12T17:17:10.607Z,2.78
2023-04-12T17:19:37.420Z,2.13
2023-04-12T17:22:04.263Z,1.60
2023-04-12T17:24:31.134Z,1.85
2023-04-12T17:26:59.250Z,1.02
2023-04-12T17:29:28.100Z,1.67
2023-04-12T17:31:55.552Z,2.72
2023-04-12T17:34:22.406Z,1.83
2023-04-12T17:36:49.392Z,2.15
2023-04-12T17:39:16.756Z,2.05
2023-04-12T17:41:43.717Z,1.80
2023-04-12T17:44:10.877Z,1.48
2023-04-12T17:46:39.178Z,1.45
2023-04-12T17:49:06.824Z,1.10
2023-04-12T17:51:33.771Z,1.27
2023-04-12T17:54:00.931Z,1.05
2023-04-12T17:56:28.242Z,1.13
2023-04-12T17:58:55.477Z,1.05
2023-04-12T18:01:22.695Z,1.17
2023-04-12T18:03:51.347Z,1.70
2023-04-12T18:06:20.478Z,1.10
2023-04-12T18:08:47.497Z,1.20
2023-04-12T18:11:14.683Z,1.52
2023-04-12T18:13:42.065Z,1.17
2023-04-12T18:16:09.105Z,2.00
2023-04-12T18:18:36.211Z,1.20
2023-04-12T18:21:05.951Z,1.63
2023-04-12T18:23:32.938Z,1.33
2023-04-12T18:25:59.827Z,1.20
2023-04-12T18:28:26.734Z,1.10
2023-04-12T18:30:55.501Z,1.25
2023-04-12T18:33:24.042Z,1.42
2023-04-12T18:35:51.363Z,1.08
2023-04-12T18:38:19.560Z,1.00
2023-04-12T18:40:46.415Z,1.60
2023-04-12T18:43:13.212Z,1.50
2023-04-12T18:45:41.073Z,1.30
2023-04-12T18:48:08.575Z,1.40
2023-04-12T18:50:35.972Z,1.38
2023-04-12T18:53:02.901Z,1.33
2023-04-12T18:55:31.450Z,1.13
2023-04-12T18:57:58.251Z,1.60
2023-04-12T19:00:25.252Z,1.27
2023-04-12T19:02:52.275Z,1.00
2023-04-12T19:05:21.614Z,1.13
2023-04-12T19:07:48.945Z,1.20
2023-04-12T19:10:16.096Z,1.27
2023-04-12T19:12:44.484Z,1.10
2023-04-12T19:15:12.232Z,0.98
2023-04-12T19:17:39.576Z,1.83
2023-04-12T19:20:08.206Z,1.00
2023-04-12T19:22:35.124Z,1.27
2023-04-12T19:25:02.125Z,1.30
2023-04-12T19:27:29.178Z,1.00
2023-04-12T19:29:58.289Z,1.10
2023-04-12T19:32:25.238Z,1.00
2023-04-12T19:34:52.142Z,1.20
2023-04-12T19:37:19.032Z,1.48
2023-04-12T19:39:45.926Z,1.52
2023-04-12T19:42:15.020Z,1.15
2023-04-12T19:44:41.904Z,1.20
2023-04-12T19:47:10.196Z,1.20
2023-04-12T19:49:37.453Z,1.08
2023-04-12T19:52:05.636Z,0.95
2023-04-12T19:54:32.721Z,0.95
2023-04-12T19:56:59.559Z,1.23
2023-04-12T19:59:30.837Z,1.10
2023-04-12T20:01:58.665Z,1.30
2023-04-12T20:04:27.598Z,1.30
2023-04-12T20:06:54.757Z,1.50
2023-04-12T20:09:22.760Z,1.48
2023-04-12T20:11:49.850Z,0.90
2023-04-12T20:14:17.019Z,1.40
2023-04-12T20:16:45.378Z,1.70
2023-04-12T20:19:12.514Z,1.33
2023-04-12T20:21:40.835Z,0.80
2023-04-12T20:24:08.812Z,1.10
2023-04-12T20:26:36.351Z,0.93
2023-04-12T20:29:08.019Z,0.98
2023-04-12T20:31:35.055Z,1.58
2023-04-12T20:34:02.046Z,0.90
2023-04-12T20:36:29.715Z,1.08
2023-04-12T20:38:58.215Z,0.55
2023-04-12T20:41:25.193Z,0.77
2023-04-12T20:43:52.064Z,1.05
2023-04-12T20:46:25.764Z,0.70
2023-04-12T20:51:24.068Z,0.60
2023-04-12T20:53:51.768Z,0.60
2023-04-12T20:56:20.054Z,0.85
2023-04-12T20:58:48.532Z,0.57
2023-04-12T21:01:15.614Z,1.13
2023-04-12T21:03:43.477Z,0.77
2023-04-12T21:06:11.146Z,0.70
2023-04-12T21:08:39.126Z,0.77
2023-04-12T21:11:06.283Z,1.13
2023-04-12T21:13:34.769Z,0.70
2023-04-12T21:16:02.916Z,0.82
2023-04-12T21:18:32.254Z,1.00
2023-04-12T21:20:59.878Z,0.73
2023-04-12T21:23:28.018Z,0.70
2023-04-12T21:25:54.897Z,0.93
2023-04-12T21:28:22.933Z,0.60
2023-04-12T21:30:55.226Z,0.60
2023-04-12T21:33:24.738Z,0.75
2023-04-12T21:35:53.276Z,0.63
2023-04-12T21:38:20.298Z,0.60
2023-04-12T21:40:47.324Z,0.68
2023-04-12T21:43:14.229Z,0.85
2023-04-12T21:45:41.567Z,0.80
2023-04-12T21:48:09.944Z,0.47
2023-04-12T21:50:37.659Z,0.47
2023-04-12T21:53:04.534Z,0.50
2023-04-12T21:55:31.424Z,0.60
2023-04-12T21:57:58.247Z,1.00
2023-04-12T22:00:27.248Z,0.85
2023-04-12T22:02:54.301Z,1.17
2023-04-12T22:05:22.904Z,1.00
2023-04-12T22:07:50.318Z,0.57
2023-04-12T22:10:18.802Z,0.95
2023-04-12T22:12:50.164Z,1.02
2023-04-12T22:15:17.150Z,1.02
2023-04-12T22:17:45.364Z,0.90
2023-04-12T22:20:13.243Z,1.13
2023-04-12T22:22:41.608Z,1.20
2023-04-12T22:25:12.108Z,1.38
2023-04-12T22:27:39.289Z,1.55
2023-04-12T22:30:08.485Z,1.58
2023-04-12T22:32:35.385Z,1.90
2023-04-12T22:35:08.210Z,2.10
2023-04-12T22:37:37.737Z,2.63
2023-04-12T22:40:12.450Z,2.75
2023-04-12T22:42:46.543Z,2.78
2023-04-12T22:45:14.254Z,3.17
2023-04-12T22:47:44.291Z,2.67
2023-04-12T22:50:12.819Z,2.65
2023-04-12T22:52:40.507Z,2.92
2023-04-12T22:55:11.864Z,2.25
2023-04-12T22:57:38.860Z,2.40
2023-04-12T23:00:07.375Z,2.30
2023-04-12T23:02:34.882Z,2.58
2023-04-12T23:05:02.873Z,3.35
2023-04-12T23:07:30.305Z,2.38
2023-04-12T23:09:57.632Z,2.30
2023-04-12T23:12:25.988Z,2.78
2023-04-12T23:14:55.707Z,2.08
2023-04-12T23:17:22.818Z,2.40
2023-04-12T23:19:50.551Z,2.72
2023-04-12T23:22:44.388Z,2.80
2023-04-12T23:25:20.709Z,3.63
2023-04-12T23:27:49.286Z,2.65
2023-04-12T23:30:16.841Z,3.08
2023-04-12T23:32:44.164Z,3.38
2023-04-12T23:35:12.213Z,3.28
2023-04-12T23:37:41.106Z,3.40
2023-04-12T23:40:14.900Z,3.40
2023-04-12T23:42:43.611Z,3.58
2023-04-12T23:45:12.114Z,3.10
2023-04-12T23:47:38.979Z,3.45
2023-04-12T23:50:07.554Z,3.78
2023-04-12T23:52:34.540Z,3.35
2023-04-12T23:55:02.691Z,2.47
2023-04-12T23:57:29.774Z,2.40
2023-04-12T23:59:56.738Z,2.13
